Time;durP1;ratioP1;P1;durP2;ratioP2;P2;SDS_P1;SDS_P2;PMS_P1;PMS_P2;Temp;Humidity;BMP_temperature;BMP_pressure;BME280_temperature;BME280_humidity;BME280_pressure;Samples;Min_cycle;Max_cycle;Signal;HPM_P1;HPM_P2
2023/01/08 00:01:26;;;;;;;;;;;;;;;8.96;100.00;100233.88;5012833;28;19953;-80
2023/01/08 00:03:52;;;;;;;;;;;;;;;8.97;100.00;100235.56;4997084;28;19926;-80
2023/01/08 00:06:18;;;;;;;;;;;;;;;8.96;100.00;100231.25;5013811;28;19922;-80
2023/01/08 00:08:44;;;;;;;;;;;;;;;8.98;100.00;100229.41;5014755;28;19921;-80
2023/01/08 00:11:10;;;;;;;;;;;;;;;9.00;100.00;100231.97;5016896;28;19917;-80
2023/01/08 00:13:35;;;;;;;;;;;;;;;9.00;100.00;100216.31;5019599;28;19932;-80
2023/01/08 00:16:01;;;;;;;;;;;;;;;9.01;100.00;100228.47;5021544;28;20004;-80
2023/01/08 00:18:27;;;;;;;;;;;;;;;9.00;100.00;100222.41;5024185;28;19921;-80
2023/01/08 00:20:53;;;;;;;;;;;;;;;8.99;100.00;100207.63;5011837;28;19925;-80
2023/01/08 00:23:18;;;;;;;;;;;;;;;9.01;100.00;100204.94;5010165;28;19918;-80
2023/01/08 00:25:44;;;;;;;;;;;;;;;8.99;100.00;100194.56;5023961;28;19921;-80
2023/01/08 00:28:10;;;;;;;;;;;;;;;9.00;100.00;100198.03;5025057;28;19929;-80
2023/01/08 00:30:35;;;;;;;;;;;;;;;8.99;100.00;100185.91;5025633;28;19929;-80
2023/01/08 00:33:00;;;;;;;;;;;;;;;8.98;100.00;100184.19;5025701;28;19921;-80
2023/01/08 00:35:26;;;;;;;;;;;;;;;9.00;100.00;100182.34;5026046;28;19936;-80
2023/01/08 00:37:51;;;;;;;;;;;;;;;8.99;100.00;100172.84;5024559;28;19925;-80
2023/01/08 00:40:16;;;;;;;;;;;;;;;9.00;100.00;100174.50;5025121;28;20312;-80
2023/01/08 00:42:41;;;;;;;;;;;;;;;8.98;100.00;100171.97;5027182;28;19928;-80
2023/01/08 00:45:07;;;;;;;;;;;;;;;8.98;100.00;100169.34;5025815;28;19948;-80
2023/01/08 00:47:32;;;;;;;;;;;;;;;8.98;100.00;100161.53;5024995;28;19925;-80
2023/01/08 00:49:57;;;;;;;;;;;;;;;8.99;100.00;100154.56;5025902;28;19930;-80
2023/01/08 00:52:23;;;;;;;;;;;;;;;8.98;100.00;100156.28;5024002;28;19988;-80
2023/01/08 00:54:48;;;;;;;;;;;;;;;8.99;100.00;100160.63;5024952;28;19928;-80
2023/01/08 00:57:13;;;;;;;;;;;;;;;8.99;100.00;100158.00;5020253;28;20124;-80
2023/01/08 00:59:38;;;;;;;;;;;;;;;8.99;100.00;100163.22;5016518;28;19928;-80
2023/01/08 01:02:04;;;;;;;;;;;;;;;9.00;100.00;100151.00;5017551;28;19932;-80
2023/01/08 01:04:29;;;;;;;;;;;;;;;9.00;100.00;100158.84;5015848;28;19922;-80
2023/01/08 01:06:54;;;;;;;;;;;;;;;9.00;100.00;100162.31;5031308;28;20228;-80
2023/01/08 01:09:20;;;;;;;;;;;;;;;8.99;100.00;100160.63;5030486;28;20229;-80
2023/01/08 01:11:45;;;;;;;;;;;;;;;9.00;100.00;100148.41;5028023;28;19917;-80
2023/01/08 01:14:10;;;;;;;;;;;;;;;9.00;100.00;100143.16;5035319;28;19921;-80
2023/01/08 01:16:35;;;;;;;;;;;;;;;9.00;100.00;100151.00;5027046;28;19952;-80
2023/01/08 01:19:01;;;;;;;;;;;;;;;9.00;100.00;100154.50;5017221;28;19921;-80
2023/01/08 01:21:28;;;;;;;;;;;;;;;8.98;100.00;100158.91;5024899;28;19925;-80
2023/01/08 01:23:53;;;;;;;;;;;;;;;8.97;100.00;100153.78;5040192;28;20210;-80
2023/01/08 01:26:19;;;;;;;;;;;;;;;8.96;100.00;100145.06;5035806;28;19944;-80
2023/01/08 01:28:49;;;;;;;;;;;;;;;8.95;100.00;100148.63;5019906;28;19925;-80
2023/01/08 01:31:14;;;;;;;;;;;;;;;8.96;100.00;100146.84;5020737;28;19925;-80
2023/01/08 01:33:40;;;;;;;;;;;;;;;8.97;100.00;100151.16;5039807;28;20235;-80
2023/01/08 01:36:06;;;;;;;;;;;;;;;8.96;100.00;100152.91;5039603;28;20157;-80
2023/01/08 01:38:31;;;;;;;;;;;;;;;8.95;100.00;100153.84;5039611;28;19913;-80
2023/01/08 01:40:57;;;;;;;;;;;;;;;8.94;100.00;100152.13;5039205;28;19984;-80
2023/01/08 01:43:48;;;;;;;;;;;;;;;8.94;100.00;100156.53;5021498;28;19925;-80
2023/01/08 01:46:20;;;;;;;;;;;;;;;8.92;100.00;100164.41;5018735;28;19913;-80
2023/01/08 01:48:48;;;;;;;;;;;;;;;8.92;100.00;100153.97;5018721;28;19922;-80
2023/01/08 01:51:13;;;;;;;;;;;;;;;8.91;100.00;100152.25;5020405;28;20121;-80
2023/01/08 01:53:40;;;;;;;;;;;;;;;8.91;100.00;100165.31;5036004;28;19932;-80
2023/01/08 01:56:06;;;;;;;;;;;;;;;8.91;100.00;100162.72;5039695;28;20223;-80
2023/01/08 01:58:32;;;;;;;;;;;;;;;8.91;100.00;100156.66;5025181;28;19944;-80
2023/01/08 02:04:00;;;;;;;;;;;;;;;8.89;100.00;100164.53;5033528;28;19919;-80
2023/01/08 02:06:33;;;;;;;;;;;;;;;8.89;100.00;100163.69;5023001;28;19913;-80
2023/01/08 02:09:04;;;;;;;;;;;;;;;8.89;100.00;100164.53;5022238;28;19921;-80
2023/01/08 02:12:15;;;;;;;;;;;;;;;8.89;100.00;100153.25;5018068;28;19917;-80
2023/01/08 02:14:59;;;;;;;;;;;;;;;8.87;100.00;100158.53;5038003;28;19929;-80
2023/01/08 02:17:28;;;;;;;;;;;;;;;8.87;100.00;100144.66;5030592;28;19948;-80
2023/01/08 02:20:01;;;;;;;;;;;;;;;8.86;100.00;100154.25;5033303;28;19984;-80
2023/01/08 02:22:38;;;;;;;;;;;;;;;8.86;100.00;100156.88;5019621;28;20096;-80
2023/01/08 02:25:04;;;;;;;;;;;;;;;8.84;100.00;100149.09;5026069;28;20090;-80
2023/01/08 02:27:30;;;;;;;;;;;;;;;8.83;100.00;100154.38;5038669;28;19944;-80
2023/01/08 02:29:57;;;;;;;;;;;;;;;8.82;100.00;100160.50;5019575;28;20090;-80
2023/01/08 02:32:25;;;;;;;;;;;;;;;8.82;100.00;100155.28;5018252;28;19916;-80
2023/01/08 02:34:50;;;;;;;;;;;;;;;8.79;100.00;100148.44;5033126;28;20248;-80
2023/01/08 02:37:18;;;;;;;;;;;;;;;8.80;100.00;100134.50;5020899;28;19913;-80
2023/01/08 02:39:50;;;;;;;;;;;;;;;8.80;100.00;100129.28;5025092;28;19926;-80
2023/01/08 02:42:34;;;;;;;;;;;;;;;8.80;100.00;100131.00;5034298;28;19928;-80
2023/01/08 02:45:18;;;;;;;;;;;;;;;8.80;100.00;100138.84;5031294;28;20271;-80
2023/01/08 02:47:45;;;;;;;;;;;;;;;8.79;100.00;100140.63;5018651;28;19917;-80
2023/01/08 02:50:29;;;;;;;;;;;;;;;8.80;100.00;100144.06;5033374;28;20000;-80
2023/01/08 02:52:54;;;;;;;;;;;;;;;8.77;100.00;100124.19;5038338;28;19948;-80
2023/01/08 02:55:21;;;;;;;;;;;;;;;8.77;100.00;100137.22;5037231;28;20258;-80
2023/01/08 02:57:47;;;;;;;;;;;;;;;8.75;100.00;100141.69;5036795;28;19975;-80
2023/01/08 03:00:13;;;;;;;;;;;;;;;8.74;100.00;100139.97;5025087;28;19925;-80
2023/01/08 03:02:40;;;;;;;;;;;;;;;8.74;100.00;100137.34;5018442;28;19928;-80
2023/01/08 03:05:13;;;;;;;;;;;;;;;8.73;100.00;100134.81;5028614;28;20232;-80
2023/01/08 03:07:38;;;;;;;;;;;;;;;8.71;100.00;100141.88;5038104;28;20201;-80
2023/01/08 03:10:04;;;;;;;;;;;;;;;8.71;100.00;100145.31;5030498;28;19952;-80
2023/01/08 03:12:38;;;;;;;;;;;;;;;8.70;100.00;100154.06;5016699;28;19913;-80
2023/01/08 03:15:06;;;;;;;;;;;;;;;8.69;100.00;100146.31;5025122;28;19936;-80
2023/01/08 03:17:35;;;;;;;;;;;;;;;8.68;100.00;100142.00;5038070;28;20220;-80
2023/01/08 03:20:09;;;;;;;;;;;;;;;8.67;100.00;100145.53;5016746;28;19925;-80
2023/01/08 03:22:36;;;;;;;;;;;;;;;8.65;99.63;100136.00;5017758;28;19917;-80
2023/01/08 03:25:03;;;;;;;;;;;;;;;8.65;100.00;100132.53;5022356;28;20208;-80
2023/01/08 03:27:31;;;;;;;;;;;;;;;8.63;99.75;100121.31;5036422;28;19913;-80
2023/01/08 03:29:57;;;;;;;;;;;;;;;8.60;98.50;100121.44;5029394;28;19925;-80
2023/01/08 03:32:24;;;;;;;;;;;;;;;8.60;99.08;100121.44;5036469;28;19917;-80
2023/01/08 03:34:51;;;;;;;;;;;;;;;8.59;99.64;100115.38;5037234;28;19936;-80
2023/01/08 03:37:20;;;;;;;;;;;;;;;8.59;99.51;100117.16;5018435;28;20167;-80
2023/01/08 03:39:50;;;;;;;;;;;;;;;8.57;99.16;100119.84;5018989;28;19921;-80
2023/01/08 03:42:16;;;;;;;;;;;;;;;8.58;99.69;100120.66;5016489;28;19952;-80
2023/01/08 03:44:42;;;;;;;;;;;;;;;8.57;99.71;100121.59;5024286;28;19953;-80
2023/01/08 03:47:09;;;;;;;;;;;;;;;8.53;98.15;100113.06;5036645;28;20112;-80
2023/01/08 03:49:35;;;;;;;;;;;;;;;8.53;98.82;100127.84;5031063;28;20089;-80
2023/01/08 03:52:00;;;;;;;;;;;;;;;8.54;99.41;100125.19;5016760;28;19913;-80
2023/01/08 03:54:29;;;;;;;;;;;;;;;8.53;99.32;100126.09;5018644;28;19925;-80
2023/01/08 03:56:54;;;;;;;;;;;;;;;8.54;99.61;100127.78;5037182;28;20196;-80
2023/01/08 03:59:20;;;;;;;;;;;;;;;8.54;99.71;100130.41;5036887;28;19917;-80
2023/01/08 04:01:45;;;;;;;;;;;;;;;8.51;99.49;100122.69;5016231;28;20153;-81
2023/01/08 04:04:11;;;;;;;;;;;;;;;8.51;99.87;100122.69;5016437;28;20095;-81
2023/01/08 04:06:36;;;;;;;;;;;;;;;8.52;100.00;100126.19;5033241;28;19920;-81
2023/01/08 04:09:01;;;;;;;;;;;;;;;8.51;100.00;100129.69;5036995;28;19921;-81
2023/01/08 04:11:27;;;;;;;;;;;;;;;8.48;98.91;100122.84;5021138;28;20148;-81
2023/01/08 04:13:52;;;;;;;;;;;;;;;8.48;99.49;100121.97;5017289;28;19918;-81
2023/01/08 04:16:18;;;;;;;;;;;;;;;8.47;99.20;100131.56;5029500;28;19925;-81
2023/01/08 04:18:43;;;;;;;;;;;;;;;8.46;99.33;100124.69;5036102;28;19921;-81
2023/01/08 04:21:08;;;;;;;;;;;;;;;8.45;99.58;100123.81;5026954;28;20251;-81
2023/01/08 04:23:33;;;;;;;;;;;;;;;8.45;99.72;100123.81;5036718;28;19925;-81
2023/01/08 04:25:59;;;;;;;;;;;;;;;8.45;100.00;100118.59;5028882;28;20225;-81
2023/01/08 04:28:24;;;;;;;;;;;;;;;8.44;100.00;100111.69;5017161;28;20242;-81
2023/01/08 04:30:49;;;;;;;;;;;;;;;8.45;100.00;100112.53;5018476;28;19947;-81
2023/01/08 04:33:15;;;;;;;;;;;;;;;8.43;99.84;100106.53;5015986;28;19992;-81
2023/01/08 04:35:40;;;;;;;;;;;;;;;8.43;99.92;100119.59;5018087;28;19917;-81
2023/01/08 04:38:06;;;;;;;;;;;;;;;8.43;100.00;100109.16;5036105;28;19913;-81
2023/01/08 04:40:31;;;;;;;;;;;;;;;8.42;100.00;100116.13;5036106;28;19939;-81
2023/01/08 04:42:57;;;;;;;;;;;;;;;8.42;100.00;100110.03;5016820;28;20127;-81
2023/01/08 04:45:22;;;;;;;;;;;;;;;8.41;100.00;100109.19;5017341;28;19945;-81
2023/01/08 04:47:47;;;;;;;;;;;;;;;8.40;100.00;100104.88;5032817;28;19959;-81
2023/01/08 04:50:12;;;;;;;;;;;;;;;8.39;100.00;100108.41;5036667;28;19929;-81
2023/01/08 04:52:38;;;;;;;;;;;;;;;8.39;100.00;100110.16;5023277;28;19964;-81
2023/01/08 04:55:03;;;;;;;;;;;;;;;8.39;100.00;100103.19;5017123;28;19921;-81
2023/01/08 04:57:29;;;;;;;;;;;;;;;8.38;100.00;100100.63;5019539;28;19920;-81
2023/01/08 04:59:54;;;;;;;;;;;;;;;8.37;100.00;100091.97;5008955;28;19989;-81
2023/01/08 05:02:19;;;;;;;;;;;;;;;8.36;100.00;100103.31;5031516;28;19925;-81
2023/01/08 05:04:46;;;;;;;;;;;;;;;8.34;99.81;100093.88;5019570;28;19925;-81
2023/01/08 05:07:11;;;;;;;;;;;;;;;8.34;100.00;100099.06;5025094;28;19977;-80
2023/01/08 05:09:36;;;;;;;;;;;;;;;8.32;100.00;100096.53;5039653;28;19936;-80
2023/01/08 05:12:02;;;;;;;;;;;;;;;8.29;99.25;100088.81;5040154;28;20209;-80
2023/01/08 05:14:27;;;;;;;;;;;;;;;8.27;99.39;100086.28;5039135;28;20117;-80
2023/01/08 05:16:52;;;;;;;;;;;;;;;8.28;99.96;100084.53;5039913;28;19928;-80
2023/01/08 05:19:17;;;;;;;;;;;;;;;8.26;99.67;100084.59;5019673;28;20217;-81
2023/01/08 05:21:43;;;;;;;;;;;;;;;8.25;100.00;100085.50;5020324;28;19988;-81
2023/01/08 05:24:08;;;;;;;;;;;;;;;8.25;100.00;100079.44;5035739;28;19917;-81
2023/01/08 05:26:34;;;;;;;;;;;;;;;8.25;100.00;100088.09;5038311;28;19921;-81
2023/01/08 05:28:59;;;;;;;;;;;;;;;8.25;100.00;100089.88;5027385;28;19914;-81
2023/01/08 05:31:24;;;;;;;;;;;;;;;8.24;100.00;100093.38;5019095;28;20144;-80
2023/01/08 05:33:50;;;;;;;;;;;;;;;8.24;100.00;100093.38;5029138;28;19917;-80
2023/01/08 05:36:15;;;;;;;;;;;;;;;8.24;100.00;100093.38;5038831;28;19936;-81
2023/01/08 05:38:40;;;;;;;;;;;;;;;8.23;100.00;100087.34;5031908;28;19926;-81
2023/01/08 05:41:06;;;;;;;;;;;;;;;8.23;100.00;100087.34;5019133;28;20020;-81
2023/01/08 05:43:31;;;;;;;;;;;;;;;8.21;100.00;100081.34;5025500;28;20110;-81
2023/01/08 05:45:58;;;;;;;;;;;;;;;8.22;100.00;100084.78;5040070;28;19999;-81
2023/01/08 05:48:23;;;;;;;;;;;;;;;8.21;100.00;100083.94;5034507;28;19918;-81
2023/01/08 05:50:49;;;;;;;;;;;;;;;8.21;100.00;100083.09;5019852;28;20191;-81
2023/01/08 05:53:14;;;;;;;;;;;;;;;8.20;100.00;100081.41;5019929;28;19963;-81
2023/01/08 05:55:39;;;;;;;;;;;;;;;8.19;100.00;100093.59;5039582;28;19952;-81
2023/01/08 05:58:05;;;;;;;;;;;;;;;8.18;100.00;100084.06;5038362;28;19913;-81
2023/01/08 06:00:30;;;;;;;;;;;;;;;8.18;100.00;100091.91;5038013;28;20216;-81
2023/01/08 06:02:55;;;;;;;;;;;;;;;8.16;100.00;100085.91;5034825;28;20228;-81
2023/01/08 06:05:21;;;;;;;;;;;;;;;8.15;100.00;100081.63;5021183;28;19917;-81
2023/01/08 06:07:46;;;;;;;;;;;;;;;8.15;100.00;100094.66;5037849;28;19920;-81
2023/01/08 06:10:11;;;;;;;;;;;;;;;8.15;100.00;100096.38;5030634;28;19952;-81
2023/01/08 06:12:37;;;;;;;;;;;;;;;8.14;100.00;100097.31;5035975;28;19917;-81
2023/01/08 06:15:02;;;;;;;;;;;;;;;8.10;99.90;100099.22;5026971;28;19933;-81
2023/01/08 06:17:27;;;;;;;;;;;;;;;8.10;99.84;100101.81;5019561;28;19931;-81
2023/01/08 06:19:53;;;;;;;;;;;;;;;8.08;100.00;100096.66;5024978;28;20232;-81
2023/01/08 06:22:18;;;;;;;;;;;;;;;8.08;100.00;100088.00;5023962;28;20144;-81
2023/01/08 06:24:43;;;;;;;;;;;;;;;8.07;100.00;100091.50;5013009;28;19918;-81
2023/01/08 06:27:08;;;;;;;;;;;;;;;8.07;100.00;100094.94;5019154;28;19993;-81
2023/01/08 06:29:34;;;;;;;;;;;;;;;8.04;99.57;100097.72;5023135;28;19933;-81
2023/01/08 06:31:59;;;;;;;;;;;;;;;8.04;99.79;100104.66;5019257;28;19914;-81
2023/01/08 06:34:24;;;;;;;;;;;;;;;8.04;100.00;100094.22;5018560;28;19913;-81
2023/01/08 06:36:50;;;;;;;;;;;;;;;8.04;100.00;100096.84;5037434;28;19913;-81
2023/01/08 06:39:15;;;;;;;;;;;;;;;8.03;100.00;100106.44;5033395;28;19945;-81
2023/01/08 06:41:41;;;;;;;;;;;;;;;8.03;100.00;100095.16;5036075;28;19936;-81
2023/01/08 06:44:06;;;;;;;;;;;;;;;8.02;100.00;100094.31;5038577;28;20181;-81
2023/01/08 06:46:37;;;;;;;;;;;;;;;7.98;99.25;100095.34;5023160;28;20251;-81
2023/01/08 06:49:02;;;;;;;;;;;;;;;7.96;99.42;100089.34;5020461;28;19929;-81
2023/01/08 06:51:27;;;;;;;;;;;;;;;7.96;99.19;100093.72;5025321;28;20039;-81
2023/01/08 06:53:52;;;;;;;;;;;;;;;7.95;99.97;100090.28;5024519;28;19932;-81
2023/01/08 06:56:17;;;;;;;;;;;;;;;7.95;99.87;100097.22;5026000;28;19925;-81
2023/01/08 06:58:43;;;;;;;;;;;;;;;7.94;99.82;100092.94;5027894;28;20240;-81
2023/01/08 07:01:12;;;;;;;;;;;;;;;7.93;100.00;100084.28;5014269;28;20263;-81
2023/01/08 07:03:37;;;;;;;;;;;;;;;7.94;100.00;100080.75;5027179;28;19965;-81
2023/01/08 07:06:02;;;;;;;;;;;;;;;7.93;100.00;100083.41;5030550;28;20209;-81
2023/01/08 07:08:28;;;;;;;;;;;;;;;7.93;100.00;100078.19;5038109;28;20456;-81
2023/01/08 07:10:53;;;;;;;;;;;;;;;7.93;100.00;100081.69;5019081;28;19933;-81
2023/01/08 07:13:19;;;;;;;;;;;;;;;7.93;100.00;100076.47;5020319;28;19948;-81
2023/01/08 07:15:45;;;;;;;;;;;;;;;7.92;100.00;100074.75;5027494;28;19956;-81
2023/01/08 07:18:10;;;;;;;;;;;;;;;7.93;100.00;100070.38;5037727;28;20177;-81
2023/01/08 07:20:36;;;;;;;;;;;;;;;7.92;100.00;100072.16;5036358;28;20003;-81
2023/01/08 07:23:05;;;;;;;;;;;;;;;7.92;100.00;100073.91;5017954;28;19913;-81
2023/01/08 07:25:31;;;;;;;;;;;;;;;7.91;100.00;100065.22;5018103;28;19937;-81
2023/01/08 07:27:56;;;;;;;;;;;;;;;7.91;100.00;100070.44;5017636;28;19928;-81
2023/01/08 07:30:22;;;;;;;;;;;;;;;7.91;100.00;100056.56;5017144;28;19913;-81
2023/01/08 07:32:47;;;;;;;;;;;;;;;7.90;100.00;100063.53;5016627;28;19917;-81
2023/01/08 07:35:12;;;;;;;;;;;;;;;7.89;100.00;100051.41;5015650;28;19913;-81
2023/01/08 07:37:41;;;;;;;;;;;;;;;7.88;100.00;100055.78;5022635;28;19932;-81
2023/01/08 07:40:07;;;;;;;;;;;;;;;7.88;100.00;100061.00;5022878;28;19920;-81
2023/01/08 07:42:32;;;;;;;;;;;;;;;7.87;100.00;100067.09;5023877;28;19988;-81
2023/01/08 07:44:57;;;;;;;;;;;;;;;7.87;100.00;100064.50;5025277;28;19917;-81
2023/01/08 07:47:23;;;;;;;;;;;;;;;7.87;100.00;100067.09;5027505;28;19913;-81
2023/01/08 07:49:48;;;;;;;;;;;;;;;7.83;100.00;100070.75;5027638;28;20005;-81
2023/01/08 07:52:13;;;;;;;;;;;;;;;7.83;100.00;100073.38;5024405;28;19917;-81
2023/01/08 07:54:39;;;;;;;;;;;;;;;7.83;100.00;100065.53;5026709;28;19932;-81
2023/01/08 07:57:04;;;;;;;;;;;;;;;7.82;100.00;100066.47;5028466;28;19913;-81
2023/01/08 07:59:29;;;;;;;;;;;;;;;7.83;100.00;100062.94;5027125;28;19952;-81
2023/01/08 08:01:54;;;;;;;;;;;;;;;7.82;100.00;100063.00;5036064;28;19921;-81
2023/01/08 08:04:20;;;;;;;;;;;;;;;7.80;100.00;100060.44;5031398;28;19958;-81
2023/01/08 08:06:45;;;;;;;;;;;;;;;7.80;100.00;100072.66;5032293;28;19917;-81
2023/01/08 08:09:10;;;;;;;;;;;;;;;7.79;100.00;100068.38;5016067;28;19937;-81
2023/01/08 08:11:37;;;;;;;;;;;;;;;7.79;100.00;100055.34;5018319;28;19967;-81
2023/01/08 08:14:02;;;;;;;;;;;;;;;7.76;99.83;100051.06;5017771;28;20285;-81
2023/01/08 08:16:27;;;;;;;;;;;;;;;7.75;99.83;100062.44;5028899;28;20197;-81
2023/01/08 08:18:53;;;;;;;;;;;;;;;7.73;99.21;100055.56;5018765;28;19925;-81
2023/01/08 08:21:18;;;;;;;;;;;;;;;7.73;99.76;100055.56;5037117;28;19913;-81
2023/01/08 08:23:43;;;;;;;;;;;;;;;7.72;99.98;100044.31;5035891;28;19913;-81
2023/01/08 08:26:09;;;;;;;;;;;;;;;7.72;100.00;100044.31;5036138;28;19913;-81
2023/01/08 08:28:34;;;;;;;;;;;;;;;7.71;100.00;100032.16;5035864;28;19963;-81
2023/01/08 08:30:59;;;;;;;;;;;;;;;7.71;100.00;100021.75;5021099;28;19917;-81
2023/01/08 08:33:25;;;;;;;;;;;;;;;7.71;100.00;100032.16;5040231;28;20186;-81
2023/01/08 08:35:50;;;;;;;;;;;;;;;7.71;100.00;100010.47;5039489;28;19913;-81
2023/01/08 08:38:15;;;;;;;;;;;;;;;7.70;100.00;100012.25;5039890;28;19921;-81
2023/01/08 08:40:41;;;;;;;;;;;;;;;7.69;100.00;100015.75;5040497;28;19956;-81
2023/01/08 08:43:08;;;;;;;;;;;;;;;7.69;100.00;100013.13;5039333;28;19921;-81
2023/01/08 08:45:33;;;;;;;;;;;;;;;7.67;100.00;100005.38;5039456;28;20255;-81
2023/01/08 08:47:59;;;;;;;;;;;;;;;7.67;100.00;100005.38;5034943;28;19929;-81
2023/01/08 08:50:24;;;;;;;;;;;;;;;7.66;100.00;100003.72;5038620;28;20113;-81
2023/01/08 08:52:49;;;;;;;;;;;;;;;7.66;99.80;100003.72;5037250;28;19921;-81
2023/01/08 08:55:16;;;;;;;;;;;;;;;7.65;100.00;99994.19;5036710;28;19967;-81
2023/01/08 08:57:42;;;;;;;;;;;;;;;7.65;100.00;100003.75;5019604;28;20187;-81
2023/01/08 09:00:07;;;;;;;;;;;;;;;7.65;99.99;100004.59;5037936;28;19935;-81
2023/01/08 09:02:32;;;;;;;;;;;;;;;7.62;99.16;100006.50;5037541;28;20132;-81
2023/01/08 09:04:58;;;;;;;;;;;;;;;7.58;98.03;99995.34;5036836;28;20344;-81
2023/01/08 09:07:23;;;;;;;;;;;;;;;7.58;98.72;99989.28;5038195;28;19909;-81
2023/01/08 09:09:48;;;;;;;;;;;;;;;7.57;98.99;99992.84;5035736;28;20212;-81
2023/01/08 09:12:13;;;;;;;;;;;;;;;7.55;99.31;99990.28;5019180;28;19952;-81
2023/01/08 09:14:39;;;;;;;;;;;;;;;7.56;99.37;99988.53;5018685;28;20265;-81
2023/01/08 09:17:04;;;;;;;;;;;;;;;7.56;100.00;99986.75;5037568;28;20170;-81
2023/01/08 09:19:29;;;;;;;;;;;;;;;7.57;100.00;99992.84;5019157;28;19929;-81
2023/01/08 09:21:55;;;;;;;;;;;;;;;7.56;99.73;99991.97;5037004;28;20255;-81
2023/01/08 09:24:20;;;;;;;;;;;;;;;7.57;100.00;99995.44;5035718;28;20247;-81
2023/01/08 09:26:45;;;;;;;;;;;;;;;7.57;100.00;100008.47;5038183;28;19921;-81
2023/01/08 09:29:11;;;;;;;;;;;;;;;7.56;99.87;99997.16;5020215;28;19921;-81
2023/01/08 09:31:36;;;;;;;;;;;;;;;7.57;100.00;100003.25;5036205;28;19947;-81
2023/01/08 09:34:01;;;;;;;;;;;;;;;7.54;99.50;100004.22;5021155;28;19921;-81
2023/01/08 09:36:26;;;;;;;;;;;;;;;7.56;99.91;99996.34;5018620;28;20028;-81
2023/01/08 09:38:52;;;;;;;;;;;;;;;7.57;100.00;100000.66;5016654;28;19921;-81
2023/01/08 09:41:24;;;;;;;;;;;;;;;7.58;100.00;99999.72;5024362;28;19929;-81
2023/01/08 09:43:51;;;;;;;;;;;;;;;7.59;100.00;99993.63;5037392;28;20220;-81
2023/01/08 09:46:18;;;;;;;;;;;;;;;7.60;100.00;99993.53;5036413;28;19991;-81
2023/01/08 09:48:43;;;;;;;;;;;;;;;7.60;100.00;99985.69;5037401;28;19920;-81
2023/01/08 09:51:12;;;;;;;;;;;;;;;7.61;100.00;99986.56;5037849;28;20263;-81
2023/01/08 09:53:38;;;;;;;;;;;;;;;7.62;100.00;99993.47;5036024;28;19984;-81
2023/01/08 09:56:09;;;;;;;;;;;;;;;7.64;100.00;99986.41;5036351;28;20231;-81
2023/01/08 09:58:36;;;;;;;;;;;;;;;7.64;100.00;100004.66;5035186;28;19976;-81
2023/01/08 10:01:02;;;;;;;;;;;;;;;7.64;100.00;99996.84;5036301;28;19940;-81
2023/01/08 10:03:29;;;;;;;;;;;;;;;7.63;100.00;99988.19;5037081;28;19997;-81
2023/01/08 10:05:54;;;;;;;;;;;;;;;7.64;100.00;100002.06;5037155;28;19917;-81
2023/01/08 10:08:19;;;;;;;;;;;;;;;7.65;100.00;100002.00;5036243;28;20003;-81
2023/01/08 10:10:45;;;;;;;;;;;;;;;7.66;100.00;99990.69;5035280;28;19928;-81
2023/01/08 10:13:11;;;;;;;;;;;;;;;7.66;100.00;99985.47;5035860;28;19960;-81
2023/01/08 10:15:38;;;;;;;;;;;;;;;7.66;100.00;99988.06;5027061;28;19943;-81
2023/01/08 10:18:05;;;;;;;;;;;;;;;7.67;100.00;99983.69;5026049;28;19981;-81
2023/01/08 10:20:31;;;;;;;;;;;;;;;7.68;100.00;99978.44;5024461;28;19909;-81
2023/01/08 10:23:06;;;;;;;;;;;;;;;7.68;100.00;99978.44;5026689;28;20225;-81
2023/01/08 10:25:32;;;;;;;;;;;;;;;7.69;100.00;99987.94;5026842;28;19918;-81
2023/01/08 10:27:58;;;;;;;;;;;;;;;7.68;100.00;99978.44;5024298;28;20135;-81
2023/01/08 10:30:29;;;;;;;;;;;;;;;7.71;100.00;99968.78;5024609;28;19925;-81
2023/01/08 10:32:56;;;;;;;;;;;;;;;7.72;100.00;99973.09;5024863;28;19975;-81
2023/01/08 10:35:27;;;;;;;;;;;;;;;7.73;100.00;99972.16;5025156;28;20224;-81
2023/01/08 10:37:53;;;;;;;;;;;;;;;7.73;100.00;99973.03;5026371;28;19917;-81
2023/01/08 10:40:38;;;;;;;;;;;;;;;7.75;100.00;99968.59;5023410;28;20102;-81
2023/01/08 10:43:12;;;;;;;;;;;;;;;7.77;100.00;99965.94;5025484;28;19940;-81
2023/01/08 10:45:37;;;;;;;;;;;;;;;7.75;100.00;99947.75;5023198;28;20096;-81
2023/01/08 10:48:04;;;;;;;;;;;;;;;7.77;100.00;99947.69;5026205;28;19928;-81
2023/01/08 10:50:31;;;;;;;;;;;;;;;7.76;100.00;99944.22;5026082;28;19921;-81
2023/01/08 10:52:58;;;;;;;;;;;;;;;7.77;100.00;99945.06;5035614;28;19944;-81
2023/01/08 10:55:24;;;;;;;;;;;;;;;7.77;100.00;99940.69;5036198;28;19917;-81
2023/01/08 10:58:12;;;;;;;;;;;;;;;7.77;100.00;99943.31;5036217;28;19923;-81
2023/01/08 11:00:37;;;;;;;;;;;;;;;7.79;100.00;99935.44;5032395;28;20031;-81
2023/01/08 11:03:04;;;;;;;;;;;;;;;7.78;100.00;99931.94;5036779;28;19925;-81
2023/01/08 11:05:31;;;;;;;;;;;;;;;7.78;99.86;99934.56;5036281;28;19931;-81
2023/01/08 11:07:57;;;;;;;;;;;;;;;7.80;100.00;99926.66;5036340;28;19921;-81
2023/01/08 11:10:24;;;;;;;;;;;;;;;7.82;100.00;99925.72;5032578;28;19929;-81
2023/01/08 11:12:57;;;;;;;;;;;;;;;7.82;100.00;99922.25;5024809;28;20235;-81
2023/01/08 11:15:26;;;;;;;;;;;;;;;7.81;99.83;99917.97;5031689;28;20168;-81
2023/01/08 11:17:52;;;;;;;;;;;;;;;7.82;99.80;99914.41;5037578;28;20151;-81
2023/01/08 11:20:22;;;;;;;;;;;;;;;7.82;99.72;99915.28;5034712;28;19921;-81
2023/01/08 11:22:47;;;;;;;;;;;;;;;7.82;99.64;99902.25;5034975;28;19924;-81
2023/01/08 11:25:15;;;;;;;;;;;;;;;7.83;99.98;99901.31;5036126;28;20012;-81
2023/01/08 11:27:43;;;;;;;;;;;;;;;7.84;100.00;99910.84;5035271;28;19956;-81
2023/01/08 11:30:17;;;;;;;;;;;;;;;7.83;99.13;99906.53;5035941;28;20139;-81
2023/01/08 11:32:50;;;;;;;;;;;;;;;7.83;99.48;99909.13;5035381;28;20124;-81
2023/01/08 11:35:20;;;;;;;;;;;;;;;7.83;99.42;99888.28;5035790;28;20201;-81
2023/01/08 11:37:50;;;;;;;;;;;;;;;7.84;99.81;99900.41;5032723;28;19917;-81
2023/01/08 11:40:17;;;;;;;;;;;;;;;7.85;99.79;99904.69;5023026;28;19925;-81
2023/01/08 11:42:50;;;;;;;;;;;;;;;7.86;99.21;99908.19;5024192;28;19916;-81
2023/01/08 11:45:21;;;;;;;;;;;;;;;7.87;99.53;99902.88;5024002;28;19924;-81
2023/01/08 11:48:06;;;;;;;;;;;;;;;7.86;99.54;99898.59;5025193;28;19920;-81
2023/01/08 11:50:41;;;;;;;;;;;;;;;7.87;99.53;99900.25;5025716;28;19921;-81
2023/01/08 11:53:06;;;;;;;;;;;;;;;7.90;100.00;99893.25;5018347;28;19928;-81
2023/01/08 11:55:42;;;;;;;;;;;;;;;7.91;100.00;99895.75;5019011;28;20197;-81
2023/01/08 11:58:21;;;;;;;;;;;;;;;7.92;100.00;99883.59;5014376;28;19948;-81
2023/01/08 12:01:05;;;;;;;;;;;;;;;7.92;99.99;99884.44;5015465;28;20167;-81
2023/01/08 12:03:34;;;;;;;;;;;;;;;7.93;99.86;99883.53;5015887;28;19945;-81
2023/01/08 12:06:14;;;;;;;;;;;;;;;7.95;99.85;99865.19;5015418;28;19918;-81
2023/01/08 12:08:49;;;;;;;;;;;;;;;7.97;100.00;99863.38;5015538;28;20353;-81
2023/01/08 12:11:28;;;;;;;;;;;;;;;7.97;100.00;99873.81;5027042;28;19992;-81
2023/01/08 12:13:54;;;;;;;;;;;;;;;7.98;100.00;99860.69;5016900;28;19926;-81
2023/01/08 12:16:31;;;;;;;;;;;;;;;7.98;99.90;99863.28;5034814;28;19909;-81
2023/01/08 12:18:56;;;;;;;;;;;;;;;7.97;99.38;99866.00;5033729;28;19940;-81
2023/01/08 12:21:40;;;;;;;;;;;;;;;7.96;98.36;99859.91;5028568;28;19913;-81
2023/01/08 12:24:08;;;;;;;;;;;;;;;7.96;98.03;99859.06;5014497;28;19963;-81
2023/01/08 12:26:58;;;;;;;;;;;;;;;7.97;98.37;99851.19;5008141;28;19925;-81
2023/01/08 12:29:24;;;;;;;;;;;;;;;7.99;99.28;99858.94;5013839;28;19921;-79
2023/01/08 12:31:50;;;;;;;;;;;;;;;7.99;99.34;99848.50;5020335;28;19921;-81
2023/01/08 12:34:18;;;;;;;;;;;;;;;7.99;98.69;99843.28;5018739;28;19927;-82
2023/01/08 12:36:46;;;;;;;;;;;;;;;7.98;98.36;99847.63;5013261;28;19916;-81
2023/01/08 12:39:15;;;;;;;;;;;;;;;7.98;98.18;99850.25;5016694;28;20098;-81
2023/01/08 12:41:42;;;;;;;;;;;;;;;8.00;98.73;99839.75;5009740;28;20190;-81
2023/01/08 12:44:10;;;;;;;;;;;;;;;8.02;99.26;99835.31;5021275;28;19926;-81
2023/01/08 12:46:37;;;;;;;;;;;;;;;8.02;99.71;99836.19;5021360;28;19917;-81